createdAt,value
2018-01-31T01:52:20.638Z,0
2018-01-31T01:52:20.846Z,0
2018-01-31T01:53:05.783Z,0
2018-01-31T01:54:06.351Z,0
2018-01-31T01:55:06.917Z,0
2018-01-31T01:56:07.486Z,0
2018-01-31T01:57:08.053Z,0
2018-01-31T01:58:08.621Z,0
2018-01-31T01:59:09.187Z,0
2018-01-31T02:00:09.770Z,0
2018-01-31T02:01:10.334Z,0
2018-01-31T02:02:10.899Z,0
2018-01-31T02:03:11.467Z,0
2018-01-31T02:04:12.034Z,0
2018-01-31T02:05:12.601Z,0
2018-01-31T02:06:13.167Z,0
2018-01-31T02:07:13.735Z,0
2018-01-31T02:08:14.315Z,0
2018-01-31T02:09:14.884Z,0
2018-01-31T02:10:15.448Z,0
2018-01-31T02:11:16.015Z,0
2018-01-31T02:12:16.583Z,0
2018-01-31T02:13:17.152Z,0
2018-01-31T02:14:17.721Z,0
2018-01-31T02:15:18.289Z,0
2018-01-31T02:16:18.856Z,0
2018-01-31T02:17:19.440Z,0
2018-01-31T02:18:20.021Z,0
2018-01-31T02:19:20.590Z,0
2018-01-31T02:20:21.158Z,0
2018-01-31T02:21:21.727Z,0
2018-01-31T02:22:22.295Z,0
2018-01-31T02:23:22.862Z,0
2018-01-31T02:24:23.430Z,0
2018-01-31T02:25:23.999Z,0
2018-01-31T02:26:24.582Z,0
2018-01-31T02:27:25.151Z,0
2018-01-31T02:28:25.734Z,0
2018-01-31T02:29:26.302Z,0
2018-01-31T02:30:26.882Z,0
2018-01-31T02:31:27.450Z,0
2018-01-31T02:32:28.019Z,0
2018-01-31T02:33:28.588Z,0
2018-01-31T02:34:29.155Z,0
2018-01-31T02:35:29.724Z,0
2018-01-31T02:36:30.292Z,0
2018-01-31T02:37:30.859Z,0
2018-01-31T02:38:31.427Z,0
2018-01-31T02:39:31.994Z,0
2018-01-31T02:40:32.581Z,0
2018-01-31T02:41:33.141Z,0
2018-01-31T02:42:33.709Z,0
2018-01-31T02:43:34.277Z,0
2018-01-31T02:44:34.845Z,0
2018-01-31T02:45:35.414Z,0
2018-01-31T02:46:35.983Z,0
2018-01-31T02:47:36.594Z,0
2018-01-31T02:48:37.120Z,0
2018-01-31T02:49:37.705Z,0
2018-01-31T02:50:38.275Z,0
2018-01-31T02:51:38.839Z,0
2018-01-31T02:52:39.407Z,0
2018-01-31T02:53:39.975Z,0
2018-01-31T02:54:40.546Z,0
2018-01-31T02:55:41.113Z,0
2018-01-31T02:56:41.681Z,0
2018-01-31T02:57:42.248Z,0
2018-01-31T02:58:42.813Z,0
2018-01-31T02:59:43.381Z,0
2018-01-31T03:00:43.948Z,0
2018-01-31T03:01:44.515Z,0
2018-01-31T03:02:45.084Z,0
2018-01-31T03:03:45.657Z,0
2018-01-31T03:04:46.220Z,0
2018-01-31T03:05:46.789Z,0
2018-01-31T03:06:47.358Z,0
2018-01-31T03:07:47.927Z,0
2018-01-31T03:08:48.495Z,0
2018-01-31T03:09:49.063Z,0
2018-01-31T03:10:49.641Z,0
2018-01-31T03:11:50.200Z,0
2018-01-31T03:12:50.768Z,0
2018-01-31T03:13:51.339Z,0
2018-01-31T03:14:51.906Z,0
2018-01-31T03:15:52.476Z,0
2018-01-31T03:16:53.057Z,0
2018-01-31T03:17:53.623Z,0
2018-01-31T03:18:54.190Z,0
2018-01-31T03:19:54.757Z,0
2018-01-31T03:20:55.325Z,0
2018-01-31T03:21:55.896Z,0
2018-01-31T03:22:56.464Z,0
2018-01-31T03:23:57.032Z,0
2018-01-31T03:24:57.600Z,0
2018-01-31T03:25:58.168Z,0
2018-01-31T03:26:58.735Z,0
2018-01-31T03:27:59.302Z,0
2018-01-31T03:28:59.868Z,0
2018-01-31T03:30:00.438Z,0
2018-01-31T03:31:01.007Z,0
2018-01-31T03:32:01.577Z,0
2018-01-31T03:33:02.161Z,0
2018-01-31T03:34:02.730Z,0
2018-01-31T03:35:03.298Z,0
2018-01-31T03:36:03.870Z,0
2018-01-31T03:37:04.452Z,0
2018-01-31T03:38:05.021Z,0
2018-01-31T03:39:05.590Z,0
2018-01-31T03:40:06.157Z,0
2018-01-31T03:41:06.726Z,0
2018-01-31T03:42:07.295Z,0
2018-01-31T03:43:07.862Z,0
2018-01-31T03:44:08.431Z,0
2018-01-31T03:45:09.028Z,0
2018-01-31T03:46:09.566Z,0
2018-01-31T03:47:10.133Z,0
2018-01-31T03:48:10.701Z,0
2018-01-31T03:49:11.269Z,0
2018-01-31T03:50:11.838Z,0
2018-01-31T03:51:12.407Z,0
2018-01-31T03:52:12.978Z,0
2018-01-31T03:53:13.560Z,0
2018-01-31T03:54:14.131Z,0
2018-01-31T03:55:14.699Z,0
2018-01-31T03:56:15.265Z,0
2018-01-31T03:57:15.842Z,0
2018-01-31T03:58:16.411Z,0
2018-01-31T03:59:16.981Z,0
2018-01-31T04:00:17.549Z,0
2018-01-31T04:01:18.133Z,0
2018-01-31T04:02:18.702Z,0
2018-01-31T04:03:19.271Z,0
2018-01-31T04:04:19.844Z,0
2018-01-31T04:05:20.406Z,0
2018-01-31T04:06:20.973Z,0
2018-01-31T04:07:21.541Z,0
2018-01-31T04:08:22.126Z,0
2018-01-31T04:09:22.693Z,0
2018-01-31T04:10:23.263Z,0
2018-01-31T04:11:23.832Z,0
2018-01-31T04:12:24.414Z,0
2018-01-31T04:13:24.983Z,0
2018-01-31T04:14:25.552Z,0
2018-01-31T04:15:26.121Z,0
2018-01-31T04:16:26.688Z,0
2018-01-31T04:17:27.258Z,0
2018-01-31T04:18:27.826Z,0
2018-01-31T04:19:28.393Z,0
2018-01-31T04:20:28.960Z,0
2018-01-31T04:21:29.527Z,0
2018-01-31T04:22:30.095Z,0
2018-01-31T04:23:30.664Z,0
2018-01-31T04:24:31.235Z,0
2018-01-31T04:25:31.817Z,0
2018-01-31T04:26:32.387Z,0
2018-01-31T04:27:32.970Z,0
2018-01-31T04:28:33.541Z,0
2018-01-31T04:29:34.111Z,0
2018-01-31T04:30:34.680Z,0
2018-01-31T04:31:35.264Z,0
2018-01-31T04:32:35.817Z,0
2018-01-31T04:33:36.385Z,0
2018-01-31T04:34:36.955Z,0
2018-01-31T04:35:37.526Z,0
2018-01-31T04:36:38.110Z,0
2018-01-31T04:37:38.679Z,0
2018-01-31T04:38:39.248Z,0
2018-01-31T04:39:39.817Z,0
2018-01-31T04:40:40.387Z,0
2018-01-31T04:41:40.957Z,0
2018-01-31T04:42:41.528Z,0
2018-01-31T04:43:42.099Z,0
2018-01-31T04:44:42.668Z,0
2018-01-31T04:45:43.237Z,0
2018-01-31T04:46:43.804Z,0
2018-01-31T04:47:44.373Z,0
2018-01-31T04:48:44.943Z,0
2018-01-31T04:49:45.512Z,0
2018-01-31T04:50:46.095Z,0
2018-01-31T04:51:46.663Z,0
2018-01-31T04:52:47.234Z,0
2018-01-31T04:53:47.802Z,0
2018-01-31T04:54:48.386Z,0
2018-01-31T04:55:48.956Z,0
2018-01-31T04:56:49.524Z,0
2018-01-31T04:57:50.094Z,0
2018-01-31T04:58:50.664Z,0
2018-01-31T04:59:51.247Z,0
2018-01-31T05:00:51.816Z,0
2018-01-31T05:01:52.384Z,0
2018-01-31T05:02:52.953Z,0
2018-01-31T05:03:53.521Z,0
2018-01-31T05:04:54.090Z,0
2018-01-31T05:05:54.658Z,0
2018-01-31T05:06:55.226Z,0
2018-01-31T05:07:55.795Z,0
2018-01-31T05:08:56.366Z,0
2018-01-31T05:09:56.936Z,0
2018-01-31T05:10:57.505Z,0
2018-01-31T05:11:58.073Z,0
2018-01-31T05:12:58.643Z,0
2018-01-31T05:13:59.210Z,0
2018-01-31T05:14:59.778Z,0
2018-01-31T05:16:00.346Z,0
2018-01-31T05:17:00.914Z,0
2018-01-31T05:18:01.484Z,0
2018-01-31T05:19:02.052Z,0
2018-01-31T05:20:02.647Z,0
2018-01-31T05:21:03.190Z,0
2018-01-31T05:22:03.758Z,0
2018-01-31T05:23:04.328Z,0
2018-01-31T05:24:04.897Z,0
2018-01-31T05:25:05.467Z,0
2018-01-31T05:26:06.046Z,0
2018-01-31T05:27:06.605Z,0
2018-01-31T05:28:07.189Z,0
2018-01-31T05:29:07.757Z,0
2018-01-31T05:30:08.326Z,0
2018-01-31T05:31:08.897Z,0
2018-01-31T05:32:09.468Z,0
2018-01-31T05:33:10.037Z,0
2018-01-31T05:34:10.607Z,0
2018-01-31T05:35:11.175Z,0
2018-01-31T05:36:11.744Z,0
2018-01-31T05:37:12.314Z,0
2018-01-31T05:38:12.883Z,0
2018-01-31T05:39:13.455Z,0
2018-01-31T05:40:14.025Z,0
2018-01-31T05:41:14.595Z,0
2018-01-31T05:42:15.163Z,0
2018-01-31T05:43:15.732Z,0
2018-01-31T05:44:16.302Z,0
2018-01-31T05:45:16.883Z,0
2018-01-31T05:46:17.453Z,0
2018-01-31T05:47:18.022Z,0
2018-01-31T05:48:18.592Z,0
2018-01-31T05:49:19.176Z,0
2018-01-31T05:50:19.745Z,0
2018-01-31T05:51:20.316Z,0
2018-01-31T05:52:20.889Z,0
2018-01-31T05:53:21.457Z,0
2018-01-31T05:54:22.027Z,0
2018-01-31T05:55:22.597Z,0
2018-01-31T05:56:23.164Z,0
2018-01-31T05:57:23.736Z,0
2018-01-31T05:58:24.375Z,0
2018-01-31T05:59:24.889Z,0
2018-01-31T06:00:25.459Z,0
2018-01-31T06:01:26.030Z,0
2018-01-31T06:02:26.601Z,0
2018-01-31T06:03:27.186Z,0
2018-01-31T06:04:27.757Z,0
2018-01-31T06:05:28.328Z,0
2018-01-31T06:06:28.897Z,0
2018-01-31T06:07:29.466Z,0
2018-01-31T06:08:30.051Z,0
2018-01-31T06:09:30.623Z,0
2018-01-31T06:10:31.188Z,0
2018-01-31T06:11:31.772Z,0
2018-01-31T06:12:32.342Z,0
2018-01-31T06:13:32.919Z,0
2018-01-31T06:14:33.481Z,0
2018-01-31T06:15:34.050Z,0
2018-01-31T06:16:34.620Z,0
2018-01-31T06:17:35.191Z,0
2018-01-31T06:18:35.762Z,0
2018-01-31T06:19:36.332Z,0
2018-01-31T06:20:36.901Z,0
2018-01-31T06:21:37.469Z,0
2018-01-31T06:22:38.038Z,0
2018-01-31T06:23:38.606Z,0
2018-01-31T06:24:39.175Z,0
2018-01-31T06:25:39.744Z,0
2018-01-31T06:26:40.313Z,0
2018-01-31T06:27:40.883Z,0
2018-01-31T06:28:41.454Z,0
2018-01-31T06:29:42.038Z,0
2018-01-31T06:30:42.609Z,0
2018-01-31T06:31:43.179Z,0
2018-01-31T06:32:43.748Z,0
2018-01-31T06:33:44.318Z,0
2018-01-31T06:34:44.889Z,0
2018-01-31T06:35:45.459Z,0
2018-01-31T06:36:46.030Z,0
2018-01-31T06:37:46.602Z,0
2018-01-31T06:38:47.176Z,0
2018-01-31T06:39:47.743Z,0
2018-01-31T06:40:48.326Z,0
2018-01-31T06:41:48.897Z,0
2018-01-31T06:42:49.484Z,0
2018-01-31T06:43:50.035Z,0
2018-01-31T06:44:50.606Z,0
2018-01-31T06:45:51.188Z,0
2018-01-31T06:46:51.759Z,0
2018-01-31T06:47:52.344Z,0
2018-01-31T06:48:52.913Z,0
2018-01-31T06:49:53.483Z,0
2018-01-31T06:50:54.052Z,0
2018-01-31T06:51:54.623Z,0
2018-01-31T06:52:55.196Z,0
2018-01-31T06:53:55.765Z,0
2018-01-31T06:54:56.335Z,0
2018-01-31T06:55:56.919Z,0
2018-01-31T06:56:57.489Z,0
2018-01-31T06:57:58.056Z,0
2018-01-31T06:58:58.626Z,0
2018-01-31T06:59:59.194Z,0
2018-01-31T07:00:59.764Z,0
2018-01-31T07:02:00.333Z,0
2018-01-31T07:03:00.904Z,0
2018-01-31T07:04:01.476Z,0
2018-01-31T07:05:02.060Z,0
2018-01-31T07:06:02.631Z,4
2018-01-31T07:07:03.201Z,4
2018-01-31T07:08:03.774Z,4
2018-01-31T07:09:04.354Z,0
2018-01-31T07:10:04.927Z,4
2018-01-31T07:11:05.496Z,0
2018-01-31T07:12:06.065Z,4
2018-01-31T07:13:06.634Z,4
2018-01-31T07:14:07.203Z,4
2018-01-31T07:15:07.771Z,4
2018-01-31T07:16:08.346Z,0
2018-01-31T07:17:08.924Z,4
2018-01-31T07:18:09.494Z,0
2018-01-31T07:19:10.065Z,4
2018-01-31T07:20:10.637Z,4
2018-01-31T07:21:11.208Z,4
2018-01-31T07:22:11.781Z,4
2018-01-31T07:23:12.350Z,8
2018-01-31T07:24:12.935Z,8
2018-01-31T07:25:13.506Z,8
2018-01-31T07:26:14.075Z,8
2018-01-31T07:27:14.644Z,4
2018-01-31T07:28:15.213Z,8
2018-01-31T07:29:15.783Z,4
2018-01-31T07:30:16.355Z,4
2018-01-31T07:31:16.925Z,12
2018-01-31T07:32:17.495Z,8
2018-01-31T07:33:18.064Z,8
2018-01-31T07:34:18.635Z,12
2018-01-31T07:35:19.203Z,8
2018-01-31T07:36:19.771Z,8
2018-01-31T07:37:20.344Z,8
2018-01-31T07:38:20.931Z,12
2018-01-31T07:39:21.504Z,8
2018-01-31T07:40:22.073Z,12
2018-01-31T07:41:22.643Z,16
2018-01-31T07:42:23.215Z,20
2018-01-31T07:43:23.784Z,12
2018-01-31T07:44:24.355Z,16
2018-01-31T07:45:24.927Z,20
2018-01-31T07:46:25.498Z,24
2018-01-31T07:47:26.086Z,24
2018-01-31T07:48:26.659Z,24
2018-01-31T07:49:27.227Z,28
2018-01-31T07:50:27.796Z,24
2018-01-31T07:51:28.367Z,24
2018-01-31T07:52:28.940Z,28
2018-01-31T07:53:29.513Z,24
2018-01-31T07:54:30.084Z,20
2018-01-31T07:55:30.653Z,20
2018-01-31T07:56:31.225Z,16
2018-01-31T07:57:31.793Z,24
2018-01-31T07:58:32.366Z,24
2018-01-31T07:59:32.945Z,24
2018-01-31T08:00:33.509Z,28
2018-01-31T08:01:34.081Z,24
2018-01-31T08:02:34.650Z,28
2018-01-31T08:03:35.234Z,28
2018-01-31T08:04:35.804Z,32
2018-01-31T08:05:36.374Z,28
2018-01-31T08:06:36.947Z,32
2018-01-31T08:07:37.518Z,28
2018-01-31T08:08:38.093Z,24
2018-01-31T08:09:38.661Z,24
2018-01-31T08:10:39.232Z,28
2018-01-31T08:11:39.803Z,24
2018-01-31T08:12:40.373Z,20
2018-01-31T08:13:40.946Z,20
2018-01-31T08:14:41.517Z,20
2018-01-31T08:15:42.088Z,24
2018-01-31T08:16:42.659Z,20
2018-01-31T08:17:43.245Z,24
2018-01-31T08:18:43.816Z,28
2018-01-31T08:19:44.390Z,32
2018-01-31T08:20:44.960Z,36
2018-01-31T08:21:45.532Z,36
2018-01-31T08:22:46.102Z,36
2018-01-31T08:23:46.672Z,36
2018-01-31T08:24:47.245Z,32
2018-01-31T08:25:47.817Z,32
2018-01-31T08:26:48.389Z,28
2018-01-31T08:27:48.959Z,28
2018-01-31T08:28:49.578Z,32
2018-01-31T08:29:50.098Z,44
2018-01-31T08:30:50.668Z,40
2018-01-31T08:31:51.240Z,40
2018-01-31T08:32:51.811Z,40
2018-01-31T08:33:52.384Z,36
2018-01-31T08:34:52.955Z,40
2018-01-31T08:35:53.528Z,40
2018-01-31T08:36:54.100Z,40
2018-01-31T08:37:54.672Z,40
2018-01-31T08:38:55.241Z,44
2018-01-31T08:39:55.812Z,44
2018-01-31T08:40:56.382Z,48
2018-01-31T08:41:56.956Z,44
2018-01-31T08:42:57.528Z,52
2018-01-31T08:43:58.100Z,48
2018-01-31T08:44:58.670Z,36
2018-01-31T08:45:59.241Z,32
2018-01-31T08:46:59.815Z,40
2018-01-31T08:48:00.383Z,44
2018-01-31T08:49:00.954Z,64
2018-01-31T08:50:01.574Z,60
2018-01-31T08:51:02.096Z,72
2018-01-31T08:52:02.665Z,64
2018-01-31T08:53:03.236Z,44
2018-01-31T08:54:03.808Z,48
2018-01-31T08:55:04.380Z,56
2018-01-31T08:56:04.951Z,40
2018-01-31T08:57:05.519Z,44
2018-01-31T08:58:06.090Z,32
2018-01-31T08:59:06.662Z,32
2018-01-31T09:00:07.233Z,32
2018-01-31T09:01:07.807Z,36
2018-01-31T09:02:08.377Z,36
2018-01-31T09:03:08.947Z,48
2018-01-31T09:04:09.532Z,60
2018-01-31T09:05:10.102Z,52
2018-01-31T09:06:10.673Z,48
2018-01-31T09:07:11.245Z,68
2018-01-31T09:08:11.816Z,72
2018-01-31T09:09:12.390Z,100
2018-01-31T09:10:12.960Z,116
2018-01-31T09:11:13.531Z,120
2018-01-31T09:12:14.105Z,124
2018-01-31T09:13:14.677Z,156
2018-01-31T09:14:15.250Z,144
2018-01-31T09:15:15.822Z,132
2018-01-31T09:16:16.394Z,160
2018-01-31T09:17:16.967Z,96
2018-01-31T09:18:17.538Z,92
2018-01-31T09:19:18.110Z,112
2018-01-31T09:20:18.694Z,148
2018-01-31T09:21:19.266Z,164
2018-01-31T09:22:19.884Z,132
2018-01-31T09:23:20.413Z,100
2018-01-31T09:24:20.985Z,100
2018-01-31T09:25:21.573Z,116
2018-01-31T09:26:22.143Z,72
2018-01-31T09:27:22.714Z,68
2018-01-31T09:28:23.287Z,76
2018-01-31T09:29:23.859Z,92
2018-01-31T09:30:24.431Z,80
2018-01-31T09:31:25.001Z,96
2018-01-31T09:32:25.593Z,108
2018-01-31T09:33:26.162Z,92
2018-01-31T09:34:26.730Z,80
2018-01-31T09:35:27.307Z,80
2018-01-31T09:36:27.873Z,68
2018-01-31T09:37:28.446Z,68
2018-01-31T09:38:29.017Z,76
2018-01-31T09:39:29.589Z,100
2018-01-31T09:40:30.162Z,100
2018-01-31T09:41:30.748Z,112
2018-01-31T09:42:31.353Z,76
2018-01-31T09:43:31.890Z,88
2018-01-31T09:44:32.475Z,96
2018-01-31T09:45:33.047Z,104
2018-01-31T09:46:33.620Z,100
2018-01-31T09:47:34.190Z,84
2018-01-31T09:48:34.774Z,72
2018-01-31T09:49:35.345Z,88
2018-01-31T09:50:35.916Z,108
2018-01-31T09:51:36.501Z,88
2018-01-31T09:52:37.074Z,76
2018-01-31T09:53:37.647Z,80
2018-01-31T09:54:38.219Z,76
2018-01-31T09:55:38.794Z,68
2018-01-31T09:56:39.378Z,60
2018-01-31T09:57:39.948Z,72
2018-01-31T09:58:40.534Z,60
2018-01-31T09:59:41.105Z,64
2018-01-31T10:00:41.691Z,72
2018-01-31T10:01:42.262Z,72
2018-01-31T10:02:42.847Z,80
2018-01-31T10:03:43.419Z,68
2018-01-31T10:04:43.989Z,76
2018-01-31T10:05:44.561Z,80
2018-01-31T10:06:45.144Z,68
2018-01-31T10:07:45.715Z,56
2018-01-31T10:08:46.286Z,64
2018-01-31T10:09:46.858Z,72
2018-01-31T10:10:47.429Z,84
2018-01-31T10:11:48.000Z,76
2018-01-31T10:12:48.570Z,64
2018-01-31T10:13:49.140Z,64
2018-01-31T10:14:49.712Z,64
2018-01-31T10:15:50.284Z,64
2018-01-31T10:16:50.857Z,60
2018-01-31T10:17:51.428Z,68
2018-01-31T10:18:51.997Z,80
2018-01-31T10:19:52.566Z,60
2018-01-31T10:20:53.138Z,56
2018-01-31T10:21:53.711Z,72
2018-01-31T10:22:54.283Z,64
2018-01-31T10:23:54.854Z,60
2018-01-31T10:24:55.438Z,72
2018-01-31T10:25:56.008Z,80
2018-01-31T10:26:56.578Z,72
2018-01-31T10:27:57.147Z,72
2018-01-31T10:28:57.718Z,84
2018-01-31T10:29:58.290Z,92
2018-01-31T10:30:58.862Z,76
2018-01-31T10:31:59.433Z,80
2018-01-31T10:33:00.007Z,72
2018-01-31T10:34:00.590Z,56
2018-01-31T10:35:01.161Z,44
2018-01-31T10:36:01.735Z,40
2018-01-31T10:37:02.308Z,48
2018-01-31T10:38:02.878Z,48
2018-01-31T10:39:03.449Z,64
2018-01-31T10:40:04.020Z,48
2018-01-31T10:41:04.592Z,40
2018-01-31T10:42:05.164Z,48
2018-01-31T10:43:05.736Z,44
2018-01-31T10:44:06.306Z,56
2018-01-31T10:45:06.876Z,60
2018-01-31T10:46:07.446Z,80
2018-01-31T10:47:08.017Z,60
2018-01-31T10:48:08.590Z,68
2018-01-31T10:49:09.175Z,64
2018-01-31T10:50:09.760Z,64
2018-01-31T10:51:10.320Z,56
2018-01-31T10:52:10.890Z,52
2018-01-31T10:53:11.462Z,56
2018-01-31T10:57:28.459Z,64
2018-01-31T10:57:28.883Z,72
2018-01-31T10:58:18.166Z,84
2018-01-31T10:59:18.738Z,88
2018-01-31T11:00:19.310Z,108
2018-01-31T11:01:19.881Z,120
2018-01-31T11:02:20.457Z,100
2018-01-31T11:03:21.027Z,88
2018-01-31T11:04:21.597Z,68
2018-01-31T11:05:22.168Z,72
2018-01-31T11:06:22.739Z,64
2018-01-31T11:07:23.309Z,68
2018-01-31T11:08:23.880Z,68
2018-01-31T11:09:24.452Z,56
2018-01-31T11:10:25.024Z,60
2018-01-31T11:11:25.596Z,56
2018-01-31T11:12:26.166Z,64
2018-01-31T11:13:26.737Z,60
2018-01-31T11:14:27.309Z,60
2018-01-31T11:15:27.880Z,72
2018-01-31T11:16:28.452Z,72
2018-01-31T11:17:29.023Z,68
2018-01-31T11:18:29.595Z,76
2018-01-31T11:19:30.163Z,92
2018-01-31T11:20:30.735Z,84
2018-01-31T11:21:31.308Z,96
2018-01-31T11:22:31.881Z,108
2018-01-31T11:23:32.455Z,88
2018-01-31T11:24:33.021Z,80
2018-01-31T11:25:33.592Z,76
2018-01-31T11:26:34.165Z,60
2018-01-31T11:27:34.751Z,60
2018-01-31T11:28:35.323Z,64
2018-01-31T11:29:35.896Z,60
2018-01-31T11:30:36.466Z,60
2018-01-31T11:31:37.050Z,56
2018-01-31T11:32:37.619Z,60
2018-01-31T11:33:38.191Z,52
2018-01-31T11:34:38.776Z,68
2018-01-31T11:35:39.348Z,88
2018-01-31T11:36:39.922Z,84
2018-01-31T11:37:40.493Z,100
2018-01-31T11:38:41.065Z,136
2018-01-31T11:39:41.637Z,120
2018-01-31T11:40:42.222Z,88
2018-01-31T11:41:42.793Z,80
2018-01-31T11:42:43.364Z,76
2018-01-31T11:43:43.938Z,88
2018-01-31T11:44:44.508Z,80
2018-01-31T11:45:45.081Z,76
2018-01-31T11:46:45.664Z,72
2018-01-31T11:47:46.235Z,60
2018-01-31T11:48:46.805Z,64
2018-01-31T11:49:47.376Z,60
2018-01-31T11:50:47.944Z,56
2018-01-31T11:51:48.516Z,52
2018-01-31T11:52:49.095Z,48
2018-01-31T11:53:49.665Z,40
2018-01-31T11:54:50.249Z,28
2018-01-31T11:55:50.819Z,24
2018-01-31T11:56:51.387Z,28
2018-01-31T11:57:51.957Z,36
2018-01-31T11:58:52.531Z,48
2018-01-31T11:59:53.102Z,68
2018-01-31T12:00:53.675Z,64
2018-01-31T12:01:54.246Z,64
2018-01-31T12:02:54.816Z,68
2018-01-31T12:03:55.389Z,72
2018-01-31T12:04:55.959Z,68
2018-01-31T12:05:56.545Z,72
2018-01-31T12:06:57.117Z,76
2018-01-31T12:07:57.687Z,76
2018-01-31T12:08:58.257Z,72
2018-01-31T12:09:58.827Z,84
2018-01-31T12:10:59.398Z,92
2018-01-31T12:11:59.971Z,92
2018-01-31T12:13:00.547Z,84
2018-01-31T12:14:01.111Z,72
2018-01-31T12:15:01.681Z,72
2018-01-31T12:16:02.251Z,72
2018-01-31T12:17:02.823Z,72
2018-01-31T12:18:03.392Z,68
2018-01-31T12:19:03.966Z,64
2018-01-31T12:20:04.536Z,68
2018-01-31T12:21:05.105Z,72
2018-01-31T12:22:05.678Z,72
2018-01-31T12:23:06.247Z,76
2018-01-31T12:24:06.818Z,76
2018-01-31T12:25:07.389Z,84
2018-01-31T12:26:07.959Z,88
2018-01-31T12:27:08.529Z,88
2018-01-31T12:28:09.100Z,84
2018-01-31T12:29:09.672Z,80
2018-01-31T12:30:10.243Z,76
2018-01-31T12:31:10.813Z,72
2018-01-31T12:32:11.386Z,80
2018-01-31T12:33:11.956Z,84
2018-01-31T12:34:12.526Z,88
2018-01-31T12:35:13.097Z,84
2018-01-31T12:36:13.665Z,84
2018-01-31T12:37:14.235Z,84
2018-01-31T12:38:14.804Z,88
2018-01-31T12:39:15.389Z,80
2018-01-31T12:40:15.960Z,76
2018-01-31T12:41:16.532Z,68
2018-01-31T12:42:17.101Z,64
2018-01-31T12:43:17.670Z,68
2018-01-31T12:44:18.255Z,72
2018-01-31T12:45:18.825Z,72
2018-01-31T12:46:19.397Z,76
2018-01-31T12:47:20.016Z,84
2018-01-31T12:48:20.536Z,96
2018-01-31T12:49:21.106Z,108
2018-01-31T12:50:21.682Z,112
2018-01-31T12:51:22.276Z,108
2018-01-31T12:52:22.821Z,108
2018-01-31T12:53:23.391Z,108
2018-01-31T12:54:23.961Z,104
2018-01-31T12:55:24.532Z,100
2018-01-31T12:56:25.103Z,104
2018-01-31T12:57:25.672Z,100
2018-01-31T12:58:26.246Z,100
2018-01-31T12:59:26.811Z,92
2018-01-31T13:00:27.380Z,88
2018-01-31T13:01:27.949Z,92
2018-01-31T13:02:28.518Z,92
2018-01-31T13:03:29.100Z,88
2018-01-31T13:04:29.687Z,88
2018-01-31T13:05:30.253Z,92
2018-01-31T13:06:30.822Z,96
2018-01-31T13:07:31.393Z,100
2018-01-31T13:08:31.963Z,104
2018-01-31T13:09:32.535Z,104
2018-01-31T13:10:33.105Z,112
2018-01-31T13:11:33.678Z,112
2018-01-31T13:12:34.256Z,112
2018-01-31T13:13:34.823Z,108
2018-01-31T13:14:35.394Z,116
2018-01-31T13:15:35.967Z,112
2018-01-31T13:16:36.539Z,112
2018-01-31T13:17:37.125Z,108
2018-01-31T13:18:37.696Z,104
2018-01-31T13:19:38.281Z,108
2018-01-31T13:20:38.886Z,100
2018-01-31T13:21:39.424Z,104
2018-01-31T13:22:39.996Z,100
2018-01-31T13:23:40.565Z,96
2018-01-31T13:24:41.133Z,96
2018-01-31T13:25:41.702Z,96
2018-01-31T13:26:42.273Z,96
2018-01-31T13:27:42.858Z,96
2018-01-31T13:28:43.430Z,100
2018-01-31T13:29:44.003Z,100
2018-01-31T13:30:44.574Z,108
2018-01-31T13:31:45.145Z,108
2018-01-31T13:32:45.717Z,108
2018-01-31T13:33:46.288Z,104
2018-01-31T13:34:46.857Z,104
2018-01-31T13:35:47.428Z,104
2018-01-31T13:36:48.000Z,108
2018-01-31T13:37:48.570Z,112
2018-01-31T13:38:49.144Z,116
2018-01-31T13:39:49.714Z,112
2018-01-31T13:40:50.286Z,104
2018-01-31T13:41:50.858Z,96
2018-01-31T13:42:51.428Z,100
2018-01-31T13:43:51.999Z,116
2018-01-31T13:44:52.570Z,112
2018-01-31T13:45:53.155Z,104
2018-01-31T13:46:53.772Z,84
2018-01-31T13:47:54.296Z,64
2018-01-31T13:48:54.867Z,64
2018-01-31T13:49:55.438Z,68
2018-01-31T13:50:56.007Z,64
2018-01-31T13:51:56.577Z,68
2018-01-31T13:52:57.148Z,68
2018-01-31T13:53:57.718Z,68
2018-01-31T13:54:58.290Z,68
2018-01-31T13:55:58.859Z,52
2018-01-31T13:56:59.428Z,52
2018-01-31T13:58:00.009Z,52
2018-01-31T13:59:00.571Z,48
2018-01-31T14:00:01.142Z,60
2018-01-31T14:01:01.712Z,60
2018-01-31T14:02:02.282Z,60
2018-01-31T14:03:02.854Z,44
2018-01-31T14:04:03.437Z,44
2018-01-31T14:05:04.008Z,40
2018-01-31T14:06:04.580Z,40
2018-01-31T14:07:05.152Z,40
2018-01-31T14:08:05.721Z,40
2018-01-31T14:09:06.291Z,48
2018-01-31T14:10:06.873Z,52
2018-01-31T14:11:07.442Z,64
2018-01-31T14:12:08.010Z,92
2018-01-31T14:13:08.595Z,108
2018-01-31T14:14:09.167Z,112
2018-01-31T14:15:09.739Z,112
2018-01-31T14:16:10.312Z,108
2018-01-31T14:17:10.901Z,104
2018-01-31T14:18:11.470Z,96
2018-01-31T14:19:12.042Z,88
2018-01-31T14:20:12.611Z,88
2018-01-31T14:21:13.183Z,88
2018-01-31T14:22:13.753Z,92
2018-01-31T14:23:14.338Z,92
2018-01-31T14:24:14.909Z,92
2018-01-31T14:25:15.479Z,88
2018-01-31T14:26:16.050Z,84
2018-01-31T14:27:16.620Z,80
2018-01-31T14:28:17.190Z,72
2018-01-31T14:29:17.760Z,60
2018-01-31T14:30:18.345Z,48
2018-01-31T14:31:18.929Z,44
2018-01-31T14:32:19.513Z,36
2018-01-31T14:33:20.081Z,28
2018-01-31T14:34:20.653Z,32
2018-01-31T14:35:21.221Z,28
2018-01-31T14:36:21.790Z,28
2018-01-31T14:37:22.359Z,32
2018-01-31T14:38:22.942Z,28
2018-01-31T14:39:23.510Z,28
2018-01-31T14:40:24.080Z,32
2018-01-31T14:41:24.651Z,28
2018-01-31T14:42:25.223Z,28
2018-01-31T14:43:25.793Z,28
2018-01-31T14:44:26.378Z,36
2018-01-31T14:45:26.947Z,36
2018-01-31T14:46:27.517Z,36
2018-01-31T14:47:28.087Z,32
2018-01-31T14:48:28.658Z,32
2018-01-31T14:49:29.228Z,44
2018-01-31T14:50:29.801Z,56
2018-01-31T14:51:30.371Z,56
2018-01-31T14:52:30.940Z,56
2018-01-31T14:53:31.511Z,56
2018-01-31T14:54:32.081Z,56
2018-01-31T14:55:32.666Z,56
2018-01-31T14:56:33.236Z,52
2018-01-31T14:57:33.820Z,52
2018-01-31T14:58:34.390Z,52
2018-01-31T14:59:34.964Z,48
2018-01-31T15:00:35.529Z,52
2018-01-31T15:01:36.098Z,48
2018-01-31T15:02:36.669Z,44
2018-01-31T15:03:37.239Z,40
2018-01-31T15:04:37.812Z,40
2018-01-31T15:05:38.381Z,44
2018-01-31T15:06:38.952Z,40
2018-01-31T15:07:39.521Z,40
2018-01-31T15:08:40.091Z,36
2018-01-31T15:09:40.666Z,36
2018-01-31T15:10:41.232Z,36
2018-01-31T15:11:41.802Z,40
2018-01-31T15:12:42.370Z,36
2018-01-31T15:13:42.952Z,36
2018-01-31T15:14:43.537Z,36
2018-01-31T15:15:44.106Z,32
2018-01-31T15:16:44.696Z,32
2018-01-31T15:17:45.265Z,32
2018-01-31T15:18:45.835Z,24
2018-01-31T15:19:46.418Z,20
2018-01-31T15:20:46.988Z,24
2018-01-31T15:21:47.557Z,20
2018-01-31T15:22:48.127Z,20
2018-01-31T15:23:48.698Z,16
2018-01-31T15:24:49.286Z,16
2018-01-31T15:25:49.857Z,16
2018-01-31T15:26:50.427Z,16
2018-01-31T15:27:50.997Z,12
2018-01-31T15:28:51.568Z,12
2018-01-31T15:29:52.139Z,12
2018-01-31T15:30:52.710Z,12
2018-01-31T15:31:53.281Z,12
2018-01-31T15:32:53.851Z,8
2018-01-31T15:33:54.434Z,8
2018-01-31T15:34:55.001Z,8
2018-01-31T15:35:55.570Z,4
2018-01-31T15:36:56.141Z,4
2018-01-31T15:37:56.710Z,8
2018-01-31T15:38:57.281Z,8
2018-01-31T15:39:57.866Z,8
2018-01-31T15:40:58.443Z,8
2018-01-31T15:41:59.012Z,8
2018-01-31T15:42:59.581Z,8
2018-01-31T15:44:00.151Z,8
2018-01-31T15:45:00.722Z,8
2018-01-31T15:46:01.290Z,8
2018-01-31T15:47:01.859Z,4
2018-01-31T15:48:02.428Z,8
2018-01-31T15:49:02.999Z,8
2018-01-31T15:50:03.585Z,4
2018-01-31T15:51:04.168Z,4
2018-01-31T15:52:04.735Z,8
2018-01-31T15:53:05.306Z,4
2018-01-31T15:54:05.878Z,4
2018-01-31T15:55:06.446Z,4
2018-01-31T15:56:07.017Z,4
2018-01-31T15:57:07.600Z,4
2018-01-31T15:58:08.170Z,4
2018-01-31T15:59:08.739Z,4
2018-01-31T16:00:09.308Z,0
2018-01-31T16:01:09.877Z,4
2018-01-31T16:02:10.449Z,4
2018-01-31T16:03:11.031Z,4
2018-01-31T16:04:11.602Z,4
2018-01-31T16:05:12.171Z,4
2018-01-31T16:06:12.738Z,0
2018-01-31T16:07:13.306Z,0
2018-01-31T16:08:13.875Z,0
2018-01-31T16:09:14.444Z,4
2018-01-31T16:10:15.013Z,4
2018-01-31T16:11:15.581Z,4
2018-01-31T16:12:16.152Z,4
2018-01-31T16:13:16.721Z,0
2018-01-31T16:14:17.293Z,0
2018-01-31T16:15:17.859Z,0
2018-01-31T16:16:18.422Z,0
2018-01-31T16:17:19.005Z,0
2018-01-31T16:18:19.575Z,0
2018-01-31T16:19:20.146Z,0
2018-01-31T16:20:20.715Z,0
2018-01-31T16:21:21.284Z,0
2018-01-31T16:22:21.853Z,0
2018-01-31T16:23:22.422Z,0
2018-01-31T16:24:22.992Z,0
2018-01-31T16:25:23.561Z,0
2018-01-31T16:26:24.131Z,0
2018-01-31T16:27:24.699Z,0
2018-01-31T16:28:25.284Z,0